sensor_id;sensor_type;location;lat;lon;timestamp;pressure;altitude;pressure_sealevel;temperature;humidity
15646;BME280;7922;43.622;1.476;2023-04-26T00:00:31;100062.53;;;11.16;98.79
15646;BME280;7922;43.622;1.476;2023-04-26T00:02:57;100199.19;;;11.86;98.66
15646;BME280;7922;43.622;1.476;2023-04-26T00:05:23;100182.72;;;11.77;98.69
15646;BME280;7922;43.622;1.476;2023-04-26T00:07:48;100186.00;;;11.82;98.31
15646;BME280;7922;43.622;1.476;2023-04-26T00:10:15;100047.94;;;11.05;99.07
15646;BME280;7922;43.622;1.476;2023-04-26T00:12:40;100036.69;;;11.00;99.26
15646;BME280;7922;43.622;1.476;2023-04-26T00:15:06;100100.63;;;11.33;99.30
15646;BME280;7922;43.622;1.476;2023-04-26T00:17:32;100242.03;;;12.17;99.18
15646;BME280;7922;43.622;1.476;2023-04-26T00:19:57;100095.38;;;11.32;99.61
15646;BME280;7922;43.622;1.476;2023-04-26T00:22:23;100159.34;;;11.65;99.22
15646;BME280;7922;43.622;1.476;2023-04-26T00:24:48;100152.59;;;11.58;99.18
15646;BME280;7922;43.622;1.476;2023-04-26T00:27:14;100229.44;;;12.02;99.02
15646;BME280;7922;43.622;1.476;2023-04-26T00:29:39;100188.78;;;11.79;99.52
15646;BME280;7922;43.622;1.476;2023-04-26T00:32:04;100046.28;;;11.03;98.35
15646;BME280;7922;43.622;1.476;2023-04-26T00:34:36;100206.47;;;12.01;98.66
15646;BME280;7922;43.622;1.476;2023-04-26T00:37:03;100216.09;;;12.03;99.37
15646;BME280;7922;43.622;1.476;2023-04-26T00:39:28;100104.53;;;11.45;99.48
15646;BME280;7922;43.622;1.476;2023-04-26T00:41:54;100170.09;;;11.82;99.17
15646;BME280;7922;43.622;1.476;2023-04-26T00:44:20;100198.38;;;12.04;98.71
15646;BME280;7922;43.622;1.476;2023-04-26T00:46:45;100184.16;;;12.05;99.17
15646;BME280;7922;43.622;1.476;2023-04-26T00:49:15;100213.31;;;12.25;99.36
15646;BME280;7922;43.622;1.476;2023-04-26T00:51:44;100069.00;;;11.29;99.62
15646;BME280;7922;43.622;1.476;2023-04-26T00:54:10;100025.91;;;11.03;99.93
15646;BME280;7922;43.622;1.476;2023-04-26T00:56:37;100216.94;;;12.24;100.00
15646;BME280;7922;43.622;1.476;2023-04-26T00:59:02;100206.78;;;12.14;99.87
15646;BME280;7922;43.622;1.476;2023-04-26T01:01:28;100185.34;;;11.98;99.28
15646;BME280;7922;43.622;1.476;2023-04-26T01:03:53;100171.56;;;11.90;99.46
15646;BME280;7922;43.622;1.476;2023-04-26T01:06:19;100085.09;;;11.45;98.82
15646;BME280;7922;43.622;1.476;2023-04-26T01:08:44;100052.22;;;11.28;99.07
15646;BME280;7922;43.622;1.476;2023-04-26T01:11:09;100064.28;;;11.36;99.28
15646;BME280;7922;43.622;1.476;2023-04-26T01:13:36;100078.78;;;11.47;98.42
15646;BME280;7922;43.622;1.476;2023-04-26T01:16:03;100083.03;;;11.51;98.41
15646;BME280;7922;43.622;1.476;2023-04-26T01:18:28;100055.25;;;11.40;99.30
15646;BME280;7922;43.622;1.476;2023-04-26T01:20:54;100148.53;;;11.90;98.78
15646;BME280;7922;43.622;1.476;2023-04-26T01:23:19;100185.91;;;12.06;99.26
15646;BME280;7922;43.622;1.476;2023-04-26T01:25:44;100173.03;;;11.97;99.34
15646;BME280;7922;43.622;1.476;2023-04-26T01:28:09;100052.34;;;11.25;98.95
15646;BME280;7922;43.622;1.476;2023-04-26T01:30:35;100052.91;;;11.33;99.74
15646;BME280;7922;43.622;1.476;2023-04-26T01:33:00;100202.84;;;12.22;100.00
15646;BME280;7922;43.622;1.476;2023-04-26T01:35:25;100051.03;;;11.36;100.00
15646;BME280;7922;43.622;1.476;2023-04-26T01:37:51;100154.44;;;11.97;100.00
15646;BME280;7922;43.622;1.476;2023-04-26T01:40:16;100118.81;;;11.82;100.00
15646;BME280;7922;43.622;1.476;2023-04-26T01:42:41;100036.19;;;11.31;100.00
15646;BME280;7922;43.622;1.476;2023-04-26T01:45:07;100006.50;;;11.23;100.00
15646;BME280;7922;43.622;1.476;2023-04-26T01:47:32;100155.75;;;12.07;100.00
15646;BME280;7922;43.622;1.476;2023-04-26T01:49:57;100126.41;;;11.91;100.00
15646;BME280;7922;43.622;1.476;2023-04-26T01:52:22;100126.53;;;11.88;100.00
15646;BME280;7922;43.622;1.476;2023-04-26T01:54:48;100130.03;;;11.89;100.00
15646;BME280;7922;43.622;1.476;2023-04-26T01:57:13;100129.59;;;11.98;100.00
15646;BME280;7922;43.622;1.476;2023-04-26T01:59:38;100175.28;;;12.25;100.00
15646;BME280;7922;43.622;1.476;2023-04-26T02:02:03;100090.03;;;11.73;100.00
15646;BME280;7922;43.622;1.476;2023-04-26T02:04:29;100120.41;;;11.86;100.00
15646;BME280;7922;43.622;1.476;2023-04-26T02:06:54;100071.06;;;11.62;100.00
15646;BME280;7922;43.622;1.476;2023-04-26T02:09:19;100145.53;;;11.98;100.00
15646;BME280;7922;43.622;1.476;2023-04-26T02:11:44;99974.91;;;10.98;100.00
15646;BME280;7922;43.622;1.476;2023-04-26T02:14:10;100132.34;;;11.96;100.00
15646;BME280;7922;43.622;1.476;2023-04-26T02:16:35;100121.09;;;11.91;100.00
15646;BME280;7922;43.622;1.476;2023-04-26T02:19:01;100130.53;;;11.97;100.00
15646;BME280;7922;43.622;1.476;2023-04-26T02:21:26;100033.97;;;11.41;100.00
15646;BME280;7922;43.622;1.476;2023-04-26T02:23:51;100070.28;;;11.60;100.00
15646;BME280;7922;43.622;1.476;2023-04-26T02:26:17;100180.59;;;12.25;100.00
15646;BME280;7922;43.622;1.476;2023-04-26T02:28:42;100141.75;;;12.03;100.00
15646;BME280;7922;43.622;1.476;2023-04-26T02:31:08;100105.44;;;11.85;100.00
15646;BME280;7922;43.622;1.476;2023-04-26T02:33:33;100005.56;;;11.24;100.00
15646;BME280;7922;43.622;1.476;2023-04-26T02:36:01;100098.44;;;11.82;100.00
15646;BME280;7922;43.622;1.476;2023-04-26T02:38:27;100115.91;;;11.88;100.00
15646;BME280;7922;43.622;1.476;2023-04-26T02:41:02;100058.88;;;11.57;100.00
15646;BME280;7922;43.622;1.476;2023-04-26T02:43:28;100172.03;;;12.18;100.00
15646;BME280;7922;43.622;1.476;2023-04-26T02:45:53;100120.28;;;11.89;100.00
15646;BME280;7922;43.622;1.476;2023-04-26T02:48:19;100100.56;;;11.74;100.00
15646;BME280;7922;43.622;1.476;2023-04-26T02:50:45;100031.34;;;11.41;100.00
15646;BME280;7922;43.622;1.476;2023-04-26T02:53:11;100077.75;;;11.70;100.00
15646;BME280;7922;43.622;1.476;2023-04-26T02:55:37;100030.34;;;11.44;100.00
15646;BME280;7922;43.622;1.476;2023-04-26T02:58:03;100095.78;;;11.82;100.00
15646;BME280;7922;43.622;1.476;2023-04-26T03:00:28;100068.13;;;11.68;100.00
15646;BME280;7922;43.622;1.476;2023-04-26T03:02:53;100143.69;;;12.19;100.00
15646;BME280;7922;43.622;1.476;2023-04-26T03:05:19;100091.22;;;11.86;100.00
15646;BME280;7922;43.622;1.476;2023-04-26T03:07:45;100106.28;;;11.86;100.00
15646;BME280;7922;43.622;1.476;2023-04-26T03:10:10;100035.34;;;11.50;100.00
15646;BME280;7922;43.622;1.476;2023-04-26T03:12:35;100100.91;;;11.87;100.00
15646;BME280;7922;43.622;1.476;2023-04-26T03:15:00;100108.59;;;11.93;100.00
15646;BME280;7922;43.622;1.476;2023-04-26T03:17:26;99955.28;;;11.02;100.00
15646;BME280;7922;43.622;1.476;2023-04-26T03:19:51;99995.75;;;11.26;100.00
15646;BME280;7922;43.622;1.476;2023-04-26T03:22:16;100084.44;;;11.79;100.00
15646;BME280;7922;43.622;1.476;2023-04-26T03:24:42;100070.53;;;11.74;100.00
15646;BME280;7922;43.622;1.476;2023-04-26T03:27:07;99995.69;;;11.28;100.00
15646;BME280;7922;43.622;1.476;2023-04-26T03:29:33;100071.38;;;11.74;100.00
15646;BME280;7922;43.622;1.476;2023-04-26T03:31:58;100093.88;;;11.86;100.00
15646;BME280;7922;43.622;1.476;2023-04-26T03:34:23;99994.00;;;11.25;100.00
15646;BME280;7922;43.622;1.476;2023-04-26T03:36:49;100036.03;;;11.55;100.00
15646;BME280;7922;43.622;1.476;2023-04-26T03:39:14;100093.13;;;11.82;100.00
15646;BME280;7922;43.622;1.476;2023-04-26T03:41:39;100135.94;;;12.14;100.00
15646;BME280;7922;43.622;1.476;2023-04-26T03:44:04;99975.66;;;11.21;100.00
15646;BME280;7922;43.622;1.476;2023-04-26T03:46:30;100094.72;;;11.87;100.00
15646;BME280;7922;43.622;1.476;2023-04-26T03:48:55;100094.59;;;11.90;100.00
15646;BME280;7922;43.622;1.476;2023-04-26T03:51:20;99999.06;;;11.31;100.00
15646;BME280;7922;43.622;1.476;2023-04-26T03:53:46;99988.56;;;11.28;100.00
15646;BME280;7922;43.622;1.476;2023-04-26T03:56:11;100101.44;;;11.95;100.00
15646;BME280;7922;43.622;1.476;2023-04-26T03:58:36;100123.16;;;12.03;100.00
15646;BME280;7922;43.622;1.476;2023-04-26T04:01:02;99973.00;;;11.21;100.00
15646;BME280;7922;43.622;1.476;2023-04-26T04:03:27;99992.63;;;11.37;100.00
15646;BME280;7922;43.622;1.476;2023-04-26T04:05:52;100136.59;;;12.19;100.00
15646;BME280;7922;43.622;1.476;2023-04-26T04:08:17;100082.91;;;11.94;100.00
15646;BME280;7922;43.622;1.476;2023-04-26T04:10:43;100067.56;;;11.80;100.00
15646;BME280;7922;43.622;1.476;2023-04-26T04:13:09;100033.16;;;11.60;100.00
15646;BME280;7922;43.622;1.476;2023-04-26T04:15:34;100106.44;;;12.01;100.00
15646;BME280;7922;43.622;1.476;2023-04-26T04:17:59;100091.88;;;11.91;100.00
15646;BME280;7922;43.622;1.476;2023-04-26T04:20:24;100079.59;;;11.89;100.00
15646;BME280;7922;43.622;1.476;2023-04-26T04:22:50;100066.38;;;11.87;100.00
15646;BME280;7922;43.622;1.476;2023-04-26T04:25:15;100039.63;;;11.73;100.00
15646;BME280;7922;43.622;1.476;2023-04-26T04:27:41;99989.88;;;11.39;100.00
15646;BME280;7922;43.622;1.476;2023-04-26T04:30:07;100137.03;;;12.29;100.00
15646;BME280;7922;43.622;1.476;2023-04-26T04:32:33;100015.69;;;11.54;100.00
15646;BME280;7922;43.622;1.476;2023-04-26T04:34:59;100109.53;;;12.11;100.00
15646;BME280;7922;43.622;1.476;2023-04-26T04:37:24;99948.38;;;11.19;100.00
15646;BME280;7922;43.622;1.476;2023-04-26T04:39:53;100004.31;;;11.52;100.00
15646;BME280;7922;43.622;1.476;2023-04-26T04:42:19;100027.75;;;11.61;100.00
15646;BME280;7922;43.622;1.476;2023-04-26T04:44:44;100034.63;;;11.65;100.00
15646;BME280;7922;43.622;1.476;2023-04-26T04:47:10;100070.91;;;11.85;100.00
15646;BME280;7922;43.622;1.476;2023-04-26T04:49:35;100041.03;;;11.61;100.00
15646;BME280;7922;43.622;1.476;2023-04-26T04:52:00;100103.72;;;12.03;100.00
15646;BME280;7922;43.622;1.476;2023-04-26T04:54:26;100138.25;;;12.22;100.00
15646;BME280;7922;43.622;1.476;2023-04-26T04:56:51;100074.16;;;11.71;100.00
15646;BME280;7922;43.622;1.476;2023-04-26T04:59:16;99979.03;;;11.24;100.00
15646;BME280;7922;43.622;1.476;2023-04-26T05:01:41;100090.34;;;11.86;100.00
15646;BME280;7922;43.622;1.476;2023-04-26T05:04:07;100008.22;;;11.43;100.00
15646;BME280;7922;43.622;1.476;2023-04-26T05:06:32;100069.72;;;11.72;100.00
15646;BME280;7922;43.622;1.476;2023-04-26T05:08:58;100121.94;;;12.11;100.00
15646;BME280;7922;43.622;1.476;2023-04-26T05:11:23;100091.94;;;11.90;100.00
15646;BME280;7922;43.622;1.476;2023-04-26T05:13:49;100111.75;;;12.01;100.00
15646;BME280;7922;43.622;1.476;2023-04-26T05:16:14;100147.19;;;12.19;100.00
15646;BME280;7922;43.622;1.476;2023-04-26T05:18:40;100117.03;;;12.01;100.00
15646;BME280;7922;43.622;1.476;2023-04-26T05:21:05;99955.03;;;11.08;100.00
15646;BME280;7922;43.622;1.476;2023-04-26T05:23:30;100138.09;;;12.06;100.00
15646;BME280;7922;43.622;1.476;2023-04-26T05:26:00;100072.47;;;11.70;100.00
15646;BME280;7922;43.622;1.476;2023-04-26T05:28:25;100123.88;;;12.07;100.00
15646;BME280;7922;43.622;1.476;2023-04-26T05:30:51;100157.69;;;12.22;100.00
15646;BME280;7922;43.622;1.476;2023-04-26T05:33:16;100036.56;;;11.62;100.00
15646;BME280;7922;43.622;1.476;2023-04-26T05:35:41;100133.06;;;12.19;100.00
15646;BME280;7922;43.622;1.476;2023-04-26T05:38:06;100086.22;;;11.99;100.00
15646;BME280;7922;43.622;1.476;2023-04-26T05:40:32;100008.78;;;11.51;100.00
15646;BME280;7922;43.622;1.476;2023-04-26T05:42:57;100115.06;;;12.07;100.00
15646;BME280;7922;43.622;1.476;2023-04-26T05:45:22;100180.94;;;12.55;100.00
15646;BME280;7922;43.622;1.476;2023-04-26T05:47:48;100100.13;;;12.04;100.00
15646;BME280;7922;43.622;1.476;2023-04-26T05:50:13;100050.78;;;11.79;100.00
15646;BME280;7922;43.622;1.476;2023-04-26T05:52:38;100019.59;;;11.66;100.00
15646;BME280;7922;43.622;1.476;2023-04-26T05:55:04;100105.88;;;12.14;100.00
15646;BME280;7922;43.622;1.476;2023-04-26T05:57:30;100026.28;;;11.74;100.00
15646;BME280;7922;43.622;1.476;2023-04-26T05:59:55;100029.63;;;11.78;100.00
15646;BME280;7922;43.622;1.476;2023-04-26T06:02:20;99990.75;;;11.58;100.00
15646;BME280;7922;43.622;1.476;2023-04-26T06:04:46;100151.84;;;12.52;100.00
15646;BME280;7922;43.622;1.476;2023-04-26T06:07:11;100196.44;;;12.83;100.00
15646;BME280;7922;43.622;1.476;2023-04-26T06:09:36;100121.44;;;12.40;100.00
15646;BME280;7922;43.622;1.476;2023-04-26T06:12:02;100067.97;;;12.10;100.00
15646;BME280;7922;43.622;1.476;2023-04-26T06:14:27;100172.19;;;12.72;100.00
15646;BME280;7922;43.622;1.476;2023-04-26T06:16:52;100146.75;;;12.66;100.00
15646;BME280;7922;43.622;1.476;2023-04-26T06:19:18;100162.63;;;12.68;100.00
15646;BME280;7922;43.622;1.476;2023-04-26T06:21:43;100176.31;;;12.77;100.00
15646;BME280;7922;43.622;1.476;2023-04-26T06:24:08;100061.44;;;12.17;100.00
15646;BME280;7922;43.622;1.476;2023-04-26T06:26:33;100166.91;;;12.89;100.00
15646;BME280;7922;43.622;1.476;2023-04-26T06:28:59;100086.59;;;12.46;100.00
15646;BME280;7922;43.622;1.476;2023-04-26T06:31:24;100213.75;;;13.28;100.00
15646;BME280;7922;43.622;1.476;2023-04-26T06:33:49;100160.97;;;13.01;100.00
15646;BME280;7922;43.622;1.476;2023-04-26T06:36:14;100141.97;;;13.09;100.00
15646;BME280;7922;43.622;1.476;2023-04-26T06:38:40;100122.25;;;12.96;100.00
15646;BME280;7922;43.622;1.476;2023-04-26T06:41:05;100089.16;;;12.84;100.00
15646;BME280;7922;43.622;1.476;2023-04-26T06:43:30;100217.06;;;13.68;100.00
15646;BME280;7922;43.622;1.476;2023-04-26T06:45:55;100195.91;;;13.65;100.00
15646;BME280;7922;43.622;1.476;2023-04-26T06:48:21;100040.38;;;12.68;100.00
15646;BME280;7922;43.622;1.476;2023-04-26T06:50:46;100177.31;;;13.47;100.00
15646;BME280;7922;43.622;1.476;2023-04-26T06:53:12;100160.16;;;13.53;100.00
15646;BME280;7922;43.622;1.476;2023-04-26T06:55:37;100057.72;;;13.10;100.00
15646;BME280;7922;43.622;1.476;2023-04-26T06:58:02;100148.69;;;13.68;100.00
15646;BME280;7922;43.622;1.476;2023-04-26T07:00:28;100110.03;;;13.61;100.00
15646;BME280;7922;43.622;1.476;2023-04-26T07:02:53;100183.69;;;13.95;100.00
15646;BME280;7922;43.622;1.476;2023-04-26T07:05:18;100168.44;;;13.82;100.00
15646;BME280;7922;43.622;1.476;2023-04-26T07:07:44;100017.38;;;13.01;100.00
15646;BME280;7922;43.622;1.476;2023-04-26T07:10:09;100150.78;;;13.96;100.00
15646;BME280;7922;43.622;1.476;2023-04-26T07:12:34;100211.38;;;14.42;100.00
15646;BME280;7922;43.622;1.476;2023-04-26T07:15:00;100033.03;;;13.58;99.69
15646;BME280;7922;43.622;1.476;2023-04-26T07:17:25;100141.38;;;14.38;99.34
15646;BME280;7922;43.622;1.476;2023-04-26T07:19:50;100133.13;;;14.43;98.68
15646;BME280;7922;43.622;1.476;2023-04-26T07:22:16;100147.31;;;14.43;98.60
15646;BME280;7922;43.622;1.476;2023-04-26T07:24:41;100019.84;;;13.72;98.79
15646;BME280;7922;43.622;1.476;2023-04-26T07:27:06;100184.69;;;14.75;98.53
15646;BME280;7922;43.622;1.476;2023-04-26T07:29:31;100078.28;;;14.07;98.26
15646;BME280;7922;43.622;1.476;2023-04-26T07:31:57;100139.88;;;14.50;98.26
15646;BME280;7922;43.622;1.476;2023-04-26T07:34:22;100092.19;;;14.44;97.78
15646;BME280;7922;43.622;1.476;2023-04-26T07:36:47;100041.84;;;14.24;96.65
15646;BME280;7922;43.622;1.476;2023-04-26T07:39:13;100145.72;;;15.03;97.07
15646;BME280;7922;43.622;1.476;2023-04-26T07:41:38;100164.66;;;15.44;95.73
15646;BME280;7922;43.622;1.476;2023-04-26T07:44:03;100179.81;;;15.74;94.90
15646;BME280;7922;43.622;1.476;2023-04-26T07:46:29;100072.81;;;15.18;94.31
15646;BME280;7922;43.622;1.476;2023-04-26T07:48:54;100159.13;;;15.92;93.76
15646;BME280;7922;43.622;1.476;2023-04-26T07:51:19;100190.06;;;16.39;93.07
15646;BME280;7922;43.622;1.476;2023-04-26T07:53:45;100153.19;;;16.29;91.21
15646;BME280;7922;43.622;1.476;2023-04-26T07:56:10;100173.91;;;16.40;91.25
15646;BME280;7922;43.622;1.476;2023-04-26T07:58:36;100158.88;;;16.52;91.17
15646;BME280;7922;43.622;1.476;2023-04-26T08:01:01;100177.69;;;16.79;90.36
15646;BME280;7922;43.622;1.476;2023-04-26T08:03:27;100143.97;;;16.62;90.09
15646;BME280;7922;43.622;1.476;2023-04-26T08:05:52;100204.88;;;17.00;89.63
15646;BME280;7922;43.622;1.476;2023-04-26T08:08:18;100197.38;;;17.05;88.84
15646;BME280;7922;43.622;1.476;2023-04-26T08:10:44;100079.00;;;16.33;89.11
15646;BME280;7922;43.622;1.476;2023-04-26T08:13:09;100217.47;;;16.98;89.16
15646;BME280;7922;43.622;1.476;2023-04-26T08:15:34;100167.66;;;16.68;90.23
15646;BME280;7922;43.622;1.476;2023-04-26T08:17:59;100152.66;;;16.66;90.18
15646;BME280;7922;43.622;1.476;2023-04-26T08:20:25;100025.25;;;15.96;90.58
15646;BME280;7922;43.622;1.476;2023-04-26T08:22:57;100192.94;;;16.91;90.28
15646;BME280;7922;43.622;1.476;2023-04-26T08:25:23;100200.91;;;17.05;90.49
15646;BME280;7922;43.622;1.476;2023-04-26T08:27:49;100174.03;;;16.80;89.90
15646;BME280;7922;43.622;1.476;2023-04-26T08:30:14;100169.16;;;16.72;89.41
15646;BME280;7922;43.622;1.476;2023-04-26T08:32:39;100176.16;;;16.60;88.46
15646;BME280;7922;43.622;1.476;2023-04-26T08:35:05;100196.56;;;16.90;89.44
15646;BME280;7922;43.622;1.476;2023-04-26T08:37:30;100161.44;;;16.68;88.49
15646;BME280;7922;43.622;1.476;2023-04-26T08:39:56;100213.75;;;17.00;88.09
15646;BME280;7922;43.622;1.476;2023-04-26T08:42:25;100162.38;;;16.81;88.87
15646;BME280;7922;43.622;1.476;2023-04-26T08:44:52;100099.81;;;16.42;88.64
15646;BME280;7922;43.622;1.476;2023-04-26T08:50:01;100060.88;;;16.38;88.10
15646;BME280;7922;43.622;1.476;2023-04-26T08:52:27;100089.59;;;16.76;87.55
15646;BME280;7922;43.622;1.476;2023-04-26T08:54:53;100121.47;;;17.06;86.35
15646;BME280;7922;43.622;1.476;2023-04-26T08:57:21;100063.53;;;16.92;85.05
15646;BME280;7922;43.622;1.476;2023-04-26T08:59:46;100136.03;;;17.54;85.06
15646;BME280;7922;43.622;1.476;2023-04-26T09:02:19;100083.19;;;17.18;85.56
15646;BME280;7922;43.622;1.476;2023-04-26T09:04:45;100166.44;;;17.41;84.74
15646;BME280;7922;43.622;1.476;2023-04-26T09:07:17;100164.03;;;17.23;85.86
15646;BME280;7922;43.622;1.476;2023-04-26T09:09:47;100182.84;;;17.49;85.86
15646;BME280;7922;43.622;1.476;2023-04-26T09:12:13;100097.75;;;16.87;85.01
15646;BME280;7922;43.622;1.476;2023-04-26T09:14:40;100113.09;;;16.98;84.99
15646;BME280;7922;43.622;1.476;2023-04-26T09:17:05;100175.13;;;17.17;85.71
15646;BME280;7922;43.622;1.476;2023-04-26T09:19:40;100204.19;;;17.23;86.82
15646;BME280;7922;43.622;1.476;2023-04-26T09:22:05;100071.09;;;16.31;87.79
15646;BME280;7922;43.622;1.476;2023-04-26T09:24:49;100179.84;;;17.14;86.96
15646;BME280;7922;43.622;1.476;2023-04-26T09:27:15;100099.34;;;16.63;85.59
15646;BME280;7922;43.622;1.476;2023-04-26T09:30:02;100090.59;;;16.60;85.63
15646;BME280;7922;43.622;1.476;2023-04-26T09:35:07;100082.25;;;16.65;86.03
15646;BME280;7922;43.622;1.476;2023-04-26T09:37:32;100094.13;;;16.61;86.85
15646;BME280;7922;43.622;1.476;2023-04-26T09:39:58;100201.75;;;17.06;87.20
15646;BME280;7922;43.622;1.476;2023-04-26T09:42:23;100130.19;;;16.82;87.72
15646;BME280;7922;43.622;1.476;2023-04-26T09:44:48;100170.06;;;17.00;88.26
15646;BME280;7922;43.622;1.476;2023-04-26T09:47:13;100193.22;;;17.14;87.88
15646;BME280;7922;43.622;1.476;2023-04-26T09:49:45;100075.16;;;16.37;88.78
15646;BME280;7922;43.622;1.476;2023-04-26T09:52:10;100185.91;;;17.03;88.58
15646;BME280;7922;43.622;1.476;2023-04-26T09:54:50;100197.13;;;16.95;88.59
15646;BME280;7922;43.622;1.476;2023-04-26T09:57:16;100104.81;;;16.34;89.41
15646;BME280;7922;43.622;1.476;2023-04-26T09:59:47;100235.25;;;16.99;90.11
15646;BME280;7922;43.622;1.476;2023-04-26T10:02:23;100220.78;;;16.89;90.93
15646;BME280;7922;43.622;1.476;2023-04-26T10:04:50;100240.44;;;16.88;90.76
15646;BME280;7922;43.622;1.476;2023-04-26T10:07:18;100238.63;;;16.88;91.58
15646;BME280;7922;43.622;1.476;2023-04-26T10:09:44;100199.38;;;16.60;91.45
15646;BME280;7922;43.622;1.476;2023-04-26T10:12:10;100197.75;;;16.57;92.61
15646;BME280;7922;43.622;1.476;2023-04-26T10:14:36;100190.31;;;16.48;93.11
15646;BME280;7922;43.622;1.476;2023-04-26T10:17:03;100239.41;;;16.76;93.60
15646;BME280;7922;43.622;1.476;2023-04-26T10:19:29;100078.38;;;16.01;93.06
15646;BME280;7922;43.622;1.476;2023-04-26T10:21:59;100216.09;;;16.78;93.97
15646;BME280;7922;43.622;1.476;2023-04-26T10:24:26;100099.38;;;16.07;93.47
15646;BME280;7922;43.622;1.476;2023-04-26T10:26:54;100185.81;;;16.63;94.07
15646;BME280;7922;43.622;1.476;2023-04-26T10:29:20;100192.22;;;16.75;94.23
15646;BME280;7922;43.622;1.476;2023-04-26T10:34:26;100080.38;;;16.11;94.30
15646;BME280;7922;43.622;1.476;2023-04-26T10:37:11;100207.63;;;16.98;94.90
15646;BME280;7922;43.622;1.476;2023-04-26T10:39:40;100153.09;;;16.87;93.92
15646;BME280;7922;43.622;1.476;2023-04-26T10:42:25;100197.78;;;17.26;92.57
15646;BME280;7922;43.622;1.476;2023-04-26T10:44:57;100137.97;;;17.13;90.02
15646;BME280;7922;43.622;1.476;2023-04-26T10:47:26;100092.22;;;16.90;90.20
15646;BME280;7922;43.622;1.476;2023-04-26T10:49:51;100177.19;;;17.66;88.90
15646;BME280;7922;43.622;1.476;2023-04-26T10:52:18;100146.06;;;17.91;89.02
15646;BME280;7922;43.622;1.476;2023-04-26T10:54:57;100185.53;;;18.51;85.93
15646;BME280;7922;43.622;1.476;2023-04-26T10:57:45;100161.50;;;18.49;84.53
15646;BME280;7922;43.622;1.476;2023-04-26T11:02:56;100151.34;;;18.66;81.98
15646;BME280;7922;43.622;1.476;2023-04-26T11:05:38;100184.28;;;18.81;82.45
15646;BME280;7922;43.622;1.476;2023-04-26T11:08:17;100178.53;;;18.98;83.29
15646;BME280;7922;43.622;1.476;2023-04-26T11:10:48;100158.56;;;18.65;82.82
15646;BME280;7922;43.622;1.476;2023-04-26T11:13:13;100168.97;;;18.20;84.40
15646;BME280;7922;43.622;1.476;2023-04-26T11:15:39;100032.63;;;17.26;85.13
15646;BME280;7922;43.622;1.476;2023-04-26T11:18:05;100161.97;;;17.67;85.27
15646;BME280;7922;43.622;1.476;2023-04-26T11:20:31;100188.69;;;17.81;86.27
15646;BME280;7922;43.622;1.476;2023-04-26T11:22:57;100145.84;;;17.94;84.48
15646;BME280;7922;43.622;1.476;2023-04-26T11:25:27;100100.28;;;17.94;83.37
15646;BME280;7922;43.622;1.476;2023-04-26T11:27:59;100161.03;;;18.81;82.81
15646;BME280;7922;43.622;1.476;2023-04-26T11:30:27;100186.69;;;19.20;80.70
15646;BME280;7922;43.622;1.476;2023-04-26T11:32:52;100049.53;;;18.03;80.32
15646;BME280;7922;43.622;1.476;2023-04-26T11:35:17;100144.84;;;18.20;83.97
15646;BME280;7922;43.622;1.476;2023-04-26T11:37:44;100136.31;;;18.39;82.43
15646;BME280;7922;43.622;1.476;2023-04-26T11:40:09;100153.19;;;18.28;82.30
15646;BME280;7922;43.622;1.476;2023-04-26T11:42:35;100152.22;;;18.66;83.50
15646;BME280;7922;43.622;1.476;2023-04-26T11:45:00;100025.19;;;18.07;83.42
15646;BME280;7922;43.622;1.476;2023-04-26T11:47:26;100123.50;;;18.92;82.28
15646;BME280;7922;43.622;1.476;2023-04-26T11:49:51;100068.97;;;18.92;80.82
15646;BME280;7922;43.622;1.476;2023-04-26T11:52:17;100126.53;;;19.23;79.27
15646;BME280;7922;43.622;1.476;2023-04-26T11:54:42;100133.78;;;19.80;77.46
15646;BME280;7922;43.622;1.476;2023-04-26T11:57:19;100058.63;;;19.79;75.88
15646;BME280;7922;43.622;1.476;2023-04-26T11:59:44;100048.25;;;19.74;75.60
15646;BME280;7922;43.622;1.476;2023-04-26T12:02:10;100038.00;;;19.90;76.14
15646;BME280;7922;43.622;1.476;2023-04-26T12:04:36;100156.31;;;21.01;76.60
15646;BME280;7922;43.622;1.476;2023-04-26T12:07:05;100075.94;;;21.18;74.67
15646;BME280;7922;43.622;1.476;2023-04-26T12:09:31;100034.66;;;21.17;73.27
15646;BME280;7922;43.622;1.476;2023-04-26T12:12:00;100107.00;;;20.57;71.40
15646;BME280;7922;43.622;1.476;2023-04-26T12:14:33;100124.63;;;20.50;74.14
15646;BME280;7922;43.622;1.476;2023-04-26T12:17:03;100013.41;;;19.61;74.81
15646;BME280;7922;43.622;1.476;2023-04-26T12:19:34;100020.72;;;18.90;76.78
15646;BME280;7922;43.622;1.476;2023-04-26T12:22:00;99984.09;;;18.78;77.44
15646;BME280;7922;43.622;1.476;2023-04-26T12:24:30;100030.38;;;19.39;76.55
15646;BME280;7922;43.622;1.476;2023-04-26T12:26:55;100137.25;;;20.16;78.29
15646;BME280;7922;43.622;1.476;2023-04-26T12:29:21;100091.06;;;19.42;79.79
15646;BME280;7922;43.622;1.476;2023-04-26T12:31:46;100093.63;;;19.32;81.36
15646;BME280;7922;43.622;1.476;2023-04-26T12:34:12;100121.19;;;19.34;80.72
15646;BME280;7922;43.622;1.476;2023-04-26T12:36:39;100016.91;;;18.58;81.27
15646;BME280;7922;43.622;1.476;2023-04-26T12:39:05;100108.13;;;18.94;81.07
15646;BME280;7922;43.622;1.476;2023-04-26T12:41:30;100102.69;;;18.83;83.01
15646;BME280;7922;43.622;1.476;2023-04-26T12:43:56;100080.09;;;18.62;81.85
15646;BME280;7922;43.622;1.476;2023-04-26T12:46:21;100130.38;;;18.84;82.99
15646;BME280;7922;43.622;1.476;2023-04-26T12:48:46;100014.53;;;18.18;83.29
15646;BME280;7922;43.622;1.476;2023-04-26T12:51:12;99966.56;;;17.89;83.10
15646;BME280;7922;43.622;1.476;2023-04-26T12:53:37;100014.50;;;17.94;83.23
15646;BME280;7922;43.622;1.476;2023-04-26T12:56:02;100056.66;;;18.52;83.35
15646;BME280;7922;43.622;1.476;2023-04-26T12:58:28;100150.88;;;19.33;81.16
15646;BME280;7922;43.622;1.476;2023-04-26T13:00:53;100077.69;;;18.70;81.43